Time;durP1;ratioP1;P1;durP2;ratioP2;P2;SDS_P1;SDS_P2;PMS_P1;PMS_P2;Temp;Humidity;BMP_temperature;BMP_pressure;BME280_temperature;BME280_humidity;BME280_pressure;Samples;Min_cycle;Max_cycle;Signal;HPM_P1;HPM_P2
2022/10/20 00:00:07;;;;;;;;;;;;;;;21.12;58.51;102241.94;5018257;28;2546;-61
2022/10/20 00:02:33;;;;;;;;;;;;;;;21.10;58.56;102232.41;5015910;28;1660;-61
2022/10/20 00:05:00;;;;;;;;;;;;;;;21.14;58.47;102226.88;5014609;28;2844;-61
2022/10/20 00:07:26;;;;;;;;;;;;;;;21.14;58.52;102232.66;5014703;28;2826;-61
2022/10/20 00:09:52;;;;;;;;;;;;;;;21.12;58.30;102230.41;5006134;28;2828;-61
2022/10/20 00:12:19;;;;;;;;;;;;;;;21.11;58.50;102234.66;5012404;28;2741;-61
2022/10/20 00:14:45;;;;;;;;;;;;;;;21.09;58.61;102222.25;5013934;28;2509;-60
2022/10/20 00:17:11;;;;;;;;;;;;;;;21.10;58.69;102226.66;5015083;28;2759;-61
2022/10/20 00:19:38;;;;;;;;;;;;;;;21.09;58.59;102220.13;5008769;28;2957;-61
2022/10/20 00:22:04;;;;;;;;;;;;;;;21.08;58.44;102217.88;5007149;28;2241;-61
2022/10/20 00:24:30;;;;;;;;;;;;;;;21.06;58.46;102211.97;5010912;28;2905;-60
2022/10/20 00:26:57;;;;;;;;;;;;;;;21.07;58.50;102210.59;5012514;28;2350;-61
2022/10/20 00:29:23;;;;;;;;;;;;;;;21.06;58.53;102220.63;5010269;28;2859;-61
2022/10/20 00:31:49;;;;;;;;;;;;;;;21.04;58.46;102212.59;5012592;28;2759;-60
2022/10/20 00:34:16;;;;;;;;;;;;;;;21.04;58.31;102203.94;5015765;28;2800;-61
2022/10/20 00:36:42;;;;;;;;;;;;;;;21.05;58.41;102198.94;5002645;28;2268;-61
2022/10/20 00:39:14;;;;;;;;;;;;;;;21.03;58.64;102185.19;5008794;28;2852;-61
2022/10/20 00:41:40;;;;;;;;;;;;;;;21.04;58.66;102183.03;5012270;28;2739;-61
2022/10/20 00:44:25;;;;;;;;;;;;;;;21.01;58.59;102179.28;5011840;28;2764;-61
2022/10/20 00:46:51;;;;;;;;;;;;;;;21.01;58.47;102184.28;5012407;28;2798;-61
2022/10/20 00:49:19;;;;;;;;;;;;;;;20.99;58.52;102187.78;5007013;28;2837;-60
2022/10/20 00:51:46;;;;;;;;;;;;;;;21.01;58.75;102195.81;5013138;28;2559;-61
2022/10/20 00:54:13;;;;;;;;;;;;;;;21.00;58.51;102192.16;5011535;28;2808;-61
2022/10/20 00:56:40;;;;;;;;;;;;;;;20.98;58.41;102192.06;5013310;28;2725;-60
2022/10/20 00:59:07;;;;;;;;;;;;;;;20.99;58.34;102189.91;5012567;28;2561;-61
2022/10/20 01:01:33;;;;;;;;;;;;;;;20.97;58.34;102187.66;5008181;28;2816;-60
2022/10/20 01:03:59;;;;;;;;;;;;;;;20.98;58.33;102194.16;5014836;28;2774;-61
2022/10/20 01:06:26;;;;;;;;;;;;;;;20.97;58.46;102189.78;5013899;28;2896;-61
2022/10/20 01:08:52;;;;;;;;;;;;;;;20.97;58.64;102184.78;5013601;28;2798;-60
2022/10/20 01:11:25;;;;;;;;;;;;;;;20.97;58.35;102179.00;5028133;28;3438;-61
2022/10/20 01:13:55;;;;;;;;;;;;;;;20.95;58.57;102175.25;5017094;28;2839;-61
2022/10/20 01:16:36;;;;;;;;;;;;;;;20.94;58.69;102183.16;5014398;28;2756;-60
2022/10/20 01:19:14;;;;;;;;;;;;;;;20.93;58.36;102170.84;5024597;28;2769;-61
2022/10/20 01:21:44;;;;;;;;;;;;;;;20.93;58.56;102167.97;5005160;28;2850;-60
2022/10/20 01:24:16;;;;;;;;;;;;;;;20.93;58.26;102167.22;5026995;28;2832;-61
2022/10/20 01:26:51;;;;;;;;;;;;;;;20.92;58.35;102163.59;5018583;28;2750;-60
2022/10/20 01:29:18;;;;;;;;;;;;;;;20.92;58.35;102163.59;5023120;28;2674;-61
2022/10/20 01:31:49;;;;;;;;;;;;;;;20.92;58.38;102157.84;5010384;28;2887;-61
2022/10/20 01:34:20;;;;;;;;;;;;;;;20.93;58.50;102152.81;5014450;28;2697;-61
2022/10/20 01:36:47;;;;;;;;;;;;;;;20.91;58.49;102159.22;5013649;28;2609;-61
2022/10/20 01:39:15;;;;;;;;;;;;;;;20.90;58.48;102149.06;5013775;28;2902;-60
2022/10/20 01:41:42;;;;;;;;;;;;;;;20.90;58.38;102149.06;5011905;28;2977;-61
2022/10/20 01:44:09;;;;;;;;;;;;;;;20.89;58.33;102143.91;5012016;28;2836;-61
2022/10/20 01:46:36;;;;;;;;;;;;;;;20.89;58.31;102138.16;5028412;28;1718;-60
2022/10/20 01:49:02;;;;;;;;;;;;;;;20.88;58.23;102136.66;5014380;28;2896;-61
2022/10/20 01:51:28;;;;;;;;;;;;;;;20.88;58.51;102131.66;5013833;28;2957;-60
2022/10/20 01:53:55;;;;;;;;;;;;;;;20.89;58.23;102127.41;5011975;28;2830;-60
2022/10/20 01:56:29;;;;;;;;;;;;;;;20.90;58.02;102119.53;5011910;28;2639;-60
2022/10/20 01:58:59;;;;;;;;;;;;;;;20.87;58.29;102101.38;5029668;28;3218;-60
2022/10/20 02:01:44;;;;;;;;;;;;;;;20.87;58.16;102110.00;5012045;28;2733;-60
2022/10/20 02:04:11;;;;;;;;;;;;;;;20.86;58.26;102105.59;5015647;28;2909;-61
2022/10/20 02:06:50;;;;;;;;;;;;;;;20.84;58.52;102102.59;5015754;28;2293;-60
2022/10/20 02:09:17;;;;;;;;;;;;;;;20.84;58.57;102108.34;5039476;28;2741;-61
2022/10/20 02:11:48;;;;;;;;;;;;;;;20.84;58.26;102093.97;5022295;28;2817;-61
2022/10/20 02:14:14;;;;;;;;;;;;;;;20.86;58.22;102094.09;5030192;28;2918;-61
2022/10/20 02:16:43;;;;;;;;;;;;;;;20.85;58.33;102097.63;5032737;28;2169;-61
2022/10/20 02:19:09;;;;;;;;;;;;;;;20.86;58.32;102099.84;5022691;28;2971;-61
2022/10/20 02:21:36;;;;;;;;;;;;;;;20.84;58.13;102102.59;5012829;28;2970;-61
2022/10/20 02:24:06;;;;;;;;;;;;;;;20.83;58.13;102106.88;5014876;28;2824;-61
2022/10/20 02:26:32;;;;;;;;;;;;;;;20.85;58.13;102094.72;5026112;28;2978;-61
2022/10/20 02:29:00;;;;;;;;;;;;;;;20.84;58.43;102088.19;5018349;28;2869;-61
2022/10/20 02:31:26;;;;;;;;;;;;;;;20.86;58.18;102087.59;5015638;28;2748;-61
2022/10/20 02:33:53;;;;;;;;;;;;;;;20.84;58.09;102073.81;5028107;28;2810;-61
2022/10/20 02:36:20;;;;;;;;;;;;;;;20.84;58.21;102076.69;5016056;28;2777;-61
2022/10/20 02:38:46;;;;;;;;;;;;;;;20.83;58.07;102080.94;5015906;28;2946;-60
2022/10/20 02:41:12;;;;;;;;;;;;;;;20.82;58.26;102076.59;5012166;28;2974;-61
2022/10/20 02:43:39;;;;;;;;;;;;;;;20.83;58.17;102078.06;5015549;28;2702;-60
2022/10/20 02:46:05;;;;;;;;;;;;;;;20.89;58.04;102081.34;5012475;28;3219;-61
2022/10/20 02:48:31;;;;;;;;;;;;;;;20.92;57.85;102074.34;5011849;28;2673;-61
2022/10/20 02:50:58;;;;;;;;;;;;;;;20.90;57.76;102077.09;5011837;28;2933;-61
2022/10/20 02:53:24;;;;;;;;;;;;;;;20.90;57.90;102059.81;5017651;28;2379;-61
2022/10/20 02:55:50;;;;;;;;;;;;;;;20.93;57.66;102064.31;5012311;28;2950;-61
2022/10/20 02:58:17;;;;;;;;;;;;;;;20.97;57.81;102066.69;5017196;28;2495;-61
2022/10/20 03:00:43;;;;;;;;;;;;;;;21.00;57.56;102067.59;5016209;28;2827;-61
2022/10/20 03:03:09;;;;;;;;;;;;;;;21.01;57.42;102063.34;5015797;28;1928;-61
2022/10/20 03:05:40;;;;;;;;;;;;;;;21.03;57.52;102060.59;5013617;28;2756;-61
2022/10/20 03:08:06;;;;;;;;;;;;;;;21.04;57.44;102056.31;5015770;28;2838;-61
2022/10/20 03:10:34;;;;;;;;;;;;;;;21.03;57.64;102066.34;5013493;28;2957;-61
2022/10/20 03:13:00;;;;;;;;;;;;;;;21.05;57.64;102052.06;5011522;28;2867;-61
2022/10/20 03:15:26;;;;;;;;;;;;;;;21.03;58.01;102049.06;5014849;28;2715;-61
2022/10/20 03:17:53;;;;;;;;;;;;;;;21.04;57.51;102053.44;5018491;28;2668;-61
2022/10/20 03:20:19;;;;;;;;;;;;;;;21.04;57.88;102039.03;5006261;28;2824;-61
2022/10/20 03:22:45;;;;;;;;;;;;;;;21.05;57.72;102038.44;5013961;28;2919;-61
2022/10/20 03:25:12;;;;;;;;;;;;;;;21.06;57.74;102031.28;5014056;28;2918;-61
2022/10/20 03:27:38;;;;;;;;;;;;;;;21.07;58.04;102029.13;5009771;28;2739;-61
2022/10/20 03:30:04;;;;;;;;;;;;;;;21.08;57.78;102033.53;5013937;28;2920;-61
2022/10/20 03:32:31;;;;;;;;;;;;;;;21.09;57.84;102029.28;5029108;28;2992;-61
2022/10/20 03:34:57;;;;;;;;;;;;;;;21.06;57.88;102021.88;5016846;28;2640;-61
2022/10/20 03:37:23;;;;;;;;;;;;;;;21.10;57.99;102025.03;5016520;28;1651;-61
2022/10/20 03:39:50;;;;;;;;;;;;;;;21.10;58.02;102019.25;5009620;28;3099;-61
2022/10/20 03:42:16;;;;;;;;;;;;;;;21.10;57.99;102025.03;5010682;28;2877;-61
2022/10/20 03:44:45;;;;;;;;;;;;;;;21.10;58.20;102025.03;5015550;28;2388;-61
2022/10/20 03:47:12;;;;;;;;;;;;;;;21.10;58.08;102025.03;5013596;28;2902;-61
2022/10/20 03:49:39;;;;;;;;;;;;;;;21.11;58.34;102015.00;5016615;28;2869;-61
2022/10/20 03:52:05;;;;;;;;;;;;;;;21.11;58.03;102021.50;5016335;28;2805;-60
2022/10/20 03:54:31;;;;;;;;;;;;;;;21.13;58.20;102018.00;5011962;28;2765;-61
2022/10/20 03:56:58;;;;;;;;;;;;;;;21.12;58.29;102017.25;5030243;28;2886;-61
2022/10/20 03:59:24;;;;;;;;;;;;;;;21.15;58.37;102012.38;5013815;28;3139;-61
2022/10/20 04:01:55;;;;;;;;;;;;;;;21.15;58.24;102014.50;5014377;28;2544;-61
2022/10/20 04:04:22;;;;;;;;;;;;;;;21.16;58.52;102008.09;5007278;28;3048;-61
2022/10/20 04:06:48;;;;;;;;;;;;;;;21.16;58.17;102010.97;5009330;28;2881;-61
2022/10/20 04:09:14;;;;;;;;;;;;;;;21.15;58.31;102015.25;5013858;28;2931;-61
2022/10/20 04:11:41;;;;;;;;;;;;;;;21.16;58.32;102010.22;5009953;28;2763;-61
2022/10/20 04:14:07;;;;;;;;;;;;;;;21.15;58.22;102020.28;5014835;28;2452;-61
2022/10/20 04:16:33;;;;;;;;;;;;;;;21.16;57.93;102016.75;5016243;28;2926;-61
2022/10/20 04:19:00;;;;;;;;;;;;;;;21.15;58.29;102015.25;5011118;28;2863;-61
2022/10/20 04:21:26;;;;;;;;;;;;;;;21.15;58.42;102008.75;5015400;28;2530;-61
2022/10/20 04:23:52;;;;;;;;;;;;;;;21.16;57.96;102005.22;5017188;28;2958;-60
2022/10/20 04:26:18;;;;;;;;;;;;;;;21.17;58.08;102006.00;5013695;28;2790;-61
2022/10/20 04:28:45;;;;;;;;;;;;;;;21.14;58.40;101996.44;5013057;28;2845;-61
2022/10/20 04:31:11;;;;;;;;;;;;;;;21.18;58.15;101999.59;5012051;28;2736;-61
2022/10/20 04:33:37;;;;;;;;;;;;;;;21.18;58.38;101993.81;5013492;28;2871;-61
2022/10/20 04:36:05;;;;;;;;;;;;;;;21.18;58.55;101999.59;5015713;28;2930;-61
2022/10/20 04:38:31;;;;;;;;;;;;;;;21.19;58.17;101991.69;5016330;28;1994;-60
2022/10/20 04:40:58;;;;;;;;;;;;;;;21.18;58.27;101993.81;5012222;28;2749;-61
2022/10/20 04:43:29;;;;;;;;;;;;;;;21.18;58.44;101985.19;5013424;28;2027;-61
2022/10/20 04:45:59;;;;;;;;;;;;;;;21.19;58.17;101986.69;5011423;28;2589;-61
2022/10/20 04:48:32;;;;;;;;;;;;;;;21.19;58.11;101985.94;5013952;28;2930;-61
2022/10/20 04:50:59;;;;;;;;;;;;;;;21.20;58.37;101988.19;5006411;28;2608;-61
2022/10/20 04:53:25;;;;;;;;;;;;;;;21.19;58.29;101980.94;5013282;28;2946;-60
2022/10/20 04:55:55;;;;;;;;;;;;;;;21.20;58.31;101988.19;5011488;28;2797;-61
2022/10/20 04:58:21;;;;;;;;;;;;;;;21.21;58.48;101975.31;5009317;28;2864;-61
2022/10/20 05:00:48;;;;;;;;;;;;;;;21.20;58.68;101970.91;5010667;28;2826;-61
2022/10/20 05:03:14;;;;;;;;;;;;;;;21.22;58.72;101978.94;5009968;28;2847;-61
2022/10/20 05:05:40;;;;;;;;;;;;;;;21.22;58.63;101968.16;5013629;28;2315;-61
2022/10/20 05:08:07;;;;;;;;;;;;;;;21.23;58.47;101963.88;5000599;28;2922;-61
2022/10/20 05:10:33;;;;;;;;;;;;;;;21.23;58.22;101963.88;5000903;28;3234;-61
2022/10/20 05:13:02;;;;;;;;;;;;;;;21.22;58.13;101950.88;5010791;28;2900;-61
2022/10/20 05:15:28;;;;;;;;;;;;;;;21.23;58.22;101955.25;5005521;28;2699;-60
2022/10/20 05:17:54;;;;;;;;;;;;;;;21.23;58.30;101951.59;5008389;28;2758;-60
2022/10/20 05:20:21;;;;;;;;;;;;;;;21.24;58.10;101947.38;5013342;28;2571;-61
2022/10/20 05:22:47;;;;;;;;;;;;;;;21.24;58.16;101947.38;5010890;28;2831;-60
2022/10/20 05:25:13;;;;;;;;;;;;;;;21.25;58.33;101945.97;5009550;28;3056;-61
2022/10/20 05:28:00;;;;;;;;;;;;;;;21.25;58.08;101946.72;5016640;28;2899;-61
2022/10/20 05:30:26;;;;;;;;;;;;;;;21.25;58.28;101949.59;5013028;28;3274;-61
2022/10/20 05:32:52;;;;;;;;;;;;;;;21.25;58.55;101948.84;5009840;28;2946;-61
2022/10/20 05:35:18;;;;;;;;;;;;;;;21.27;58.48;101964.13;5009792;28;2951;-60
2022/10/20 05:37:45;;;;;;;;;;;;;;;21.26;58.44;101956.88;5010779;28;2277;-61
2022/10/20 05:40:11;;;;;;;;;;;;;;;21.27;58.34;101961.25;5008916;28;2943;-61
2022/10/20 05:42:38;;;;;;;;;;;;;;;21.25;58.24;101961.13;5006050;28;2976;-62
2022/10/20 05:45:04;;;;;;;;;;;;;;;21.27;58.59;101958.38;5011135;28;2947;-66
2022/10/20 05:47:31;;;;;;;;;;;;;;;21.28;58.56;101959.88;5015656;28;3049;-69
2022/10/20 05:49:57;;;;;;;;;;;;;;;21.58;60.55;101965.97;5010115;28;4469;-67
2022/10/20 05:52:23;;;;;;;;;;;;;;;21.64;59.64;101959.81;5016397;28;2816;-67
2022/10/20 05:54:50;;;;;;;;;;;;;;;21.54;58.57;101966.47;5018512;28;2497;-77
2022/10/20 05:57:17;;;;;;;;;;;;;;;21.30;58.43;101971.53;5013230;28;2973;-65
2022/10/20 05:59:43;;;;;;;;;;;;;;;20.60;52.06;101974.41;5014320;28;3006;-67
2022/10/20 06:02:10;;;;;;;;;;;;;;;20.45;49.05;101973.47;5016912;28;3010;-67
2022/10/20 06:04:36;;;;;;;;;;;;;;;20.21;47.02;101977.66;5015166;28;2870;-66
2022/10/20 06:07:04;;;;;;;;;;;;;;;20.04;45.38;101973.75;5015696;28;3021;-66
2022/10/20 06:09:30;;;;;;;;;;;;;;;19.79;45.16;101970.63;5020652;28;2872;-67
2022/10/20 06:11:57;;;;;;;;;;;;;;;19.87;44.26;101971.91;5012891;28;2836;-67
2022/10/20 06:14:24;;;;;;;;;;;;;;;19.82;43.79;101958.66;5020395;28;1642;-67
2022/10/20 06:16:51;;;;;;;;;;;;;;;19.66;43.60;101964.03;5014319;28;2939;-67
2022/10/20 06:19:17;;;;;;;;;;;;;;;19.69;43.42;101961.31;5015448;28;2950;-67
2022/10/20 06:21:44;;;;;;;;;;;;;;;19.64;42.97;101966.03;5016263;28;3001;-68
2022/10/20 06:24:10;;;;;;;;;;;;;;;19.43;43.25;101969.66;5013676;28;2932;-68
2022/10/20 06:26:36;;;;;;;;;;;;;;;19.35;43.22;101960.47;5012997;28;3042;-69
2022/10/20 06:29:07;;;;;;;;;;;;;;;19.49;47.11;101960.69;5014210;28;4483;-63
2022/10/20 06:31:34;;;;;;;;;;;;;;;20.29;47.05;101958.03;5022017;28;2746;-61
2022/10/20 06:34:00;;;;;;;;;;;;;;;20.81;46.42;101951.28;5024001;28;2926;-61
2022/10/20 06:36:27;;;;;;;;;;;;;;;20.98;46.61;101944.41;5037410;28;3024;-62
2022/10/20 06:38:54;;;;;;;;;;;;;;;21.23;46.65;101940.09;5013844;28;2968;-60
2022/10/20 06:41:20;;;;;;;;;;;;;;;21.30;46.65;101945.59;5019203;28;3916;-59
2022/10/20 06:43:46;;;;;;;;;;;;;;;21.21;46.03;101942.84;5004911;28;4494;-62
2022/10/20 06:46:14;;;;;;;;;;;;;;;21.30;46.52;101948.47;5014410;28;2822;-62
2022/10/20 06:48:40;;;;;;;;;;;;;;;21.37;47.52;101943.06;5023459;28;2809;-61
2022/10/20 06:51:08;;;;;;;;;;;;;;;21.42;47.88;101939.09;5016015;28;3030;-62
2022/10/20 06:53:35;;;;;;;;;;;;;;;21.52;48.13;101937.53;5035480;28;2832;-62
2022/10/20 06:56:02;;;;;;;;;;;;;;;21.65;48.24;101933.25;5014165;28;2887;-60
2022/10/20 06:58:28;;;;;;;;;;;;;;;21.58;48.75;101931.41;5015902;28;3169;-60
2022/10/20 07:01:24;;;;;;;;;;;;;;;21.63;48.86;101938.91;5015174;28;3428;-60
2022/10/20 07:03:52;;;;;;;;;;;;;;;21.69;48.57;101933.50;5016819;28;3174;-60
2022/10/20 07:06:22;;;;;;;;;;;;;;;21.47;49.20;101935.06;5012681;28;3114;-62
2022/10/20 07:08:49;;;;;;;;;;;;;;;21.18;49.99;101936.22;5010147;28;3017;-62
2022/10/20 07:11:17;;;;;;;;;;;;;;;21.14;50.57;101927.31;5009480;28;3120;-61
2022/10/20 07:13:43;;;;;;;;;;;;;;;21.13;50.56;101926.56;5005036;28;3065;-61
2022/10/20 07:16:12;;;;;;;;;;;;;;;21.22;50.72;101927.81;5015585;28;3009;-62
2022/10/20 07:18:39;;;;;;;;;;;;;;;21.21;50.89;101937.84;5011779;28;3249;-61
2022/10/20 07:21:06;;;;;;;;;;;;;;;21.20;50.94;101936.34;5014698;28;3181;-61
2022/10/20 07:23:33;;;;;;;;;;;;;;;21.17;51.67;101934.72;5015529;28;3001;-58
2022/10/20 07:26:00;;;;;;;;;;;;;;;21.58;51.41;101931.41;5018419;28;2671;-61
2022/10/20 07:28:26;;;;;;;;;;;;;;;21.90;51.12;101943.31;5016306;28;2879;-61
2022/10/20 07:30:53;;;;;;;;;;;;;;;21.97;50.86;101936.50;5016977;28;1743;-61
2022/10/20 07:33:19;;;;;;;;;;;;;;;22.04;51.23;101937.59;5020247;28;2847;-61
2022/10/20 07:35:46;;;;;;;;;;;;;;;22.25;50.80;101927.97;5017768;28;3206;-61
2022/10/20 07:38:13;;;;;;;;;;;;;;;22.27;50.80;101925.19;5013488;28;4463;-60
2022/10/20 07:40:39;;;;;;;;;;;;;;;22.26;50.46;101927.31;5014783;28;2780;-61
2022/10/20 07:43:05;;;;;;;;;;;;;;;22.26;50.91;101929.47;5014966;28;2951;-60
2022/10/20 07:45:32;;;;;;;;;;;;;;;22.24;50.88;101935.13;5013388;28;3157;-60
2022/10/20 07:47:58;;;;;;;;;;;;;;;22.25;51.02;101931.59;5017432;28;3037;-60
2022/10/20 07:50:24;;;;;;;;;;;;;;;22.27;51.00;101925.94;5021675;28;2390;-60
2022/10/20 07:52:51;;;;;;;;;;;;;;;22.26;51.12;101933.09;5014781;28;2881;-62
2022/10/20 07:55:17;;;;;;;;;;;;;;;22.32;51.23;101932.69;5011288;28;3018;-61
2022/10/20 07:58:04;;;;;;;;;;;;;;;22.41;50.92;101922.34;5011273;28;2836;-60
2022/10/20 08:00:30;;;;;;;;;;;;;;;22.36;51.55;101922.13;5017490;28;2005;-60
2022/10/20 08:02:56;;;;;;;;;;;;;;;22.37;51.38;101914.94;5012433;28;3046;-60
2022/10/20 08:05:23;;;;;;;;;;;;;;;22.33;51.45;101919.75;5011376;28;2997;-60
2022/10/20 08:07:49;;;;;;;;;;;;;;;22.14;52.08;101912.94;5008476;28;3061;-60
2022/10/20 08:10:15;;;;;;;;;;;;;;;22.23;52.04;101907.66;5007678;28;4568;-62
2022/10/20 08:12:42;;;;;;;;;;;;;;;22.35;52.07;101902.53;5009209;28;3068;-61
2022/10/20 08:15:08;;;;;;;;;;;;;;;22.39;52.11;101908.53;5010476;28;3243;-62
2022/10/20 08:17:42;;;;;;;;;;;;;;;22.42;51.77;101906.53;5014179;28;2969;-62
2022/10/20 08:20:08;;;;;;;;;;;;;;;22.50;51.94;101901.94;5009418;28;4567;-61
2022/10/20 08:22:39;;;;;;;;;;;;;;;22.52;51.65;101904.94;5009106;28;3026;-61
2022/10/20 08:25:05;;;;;;;;;;;;;;;22.49;51.56;101893.91;5013930;28;3056;-61
2022/10/20 08:27:32;;;;;;;;;;;;;;;22.50;51.84;101898.31;5013764;28;6324;-64
2022/10/20 08:29:58;;;;;;;;;;;;;;;22.40;51.71;101897.75;5016633;28;2958;-60
2022/10/20 08:32:37;;;;;;;;;;;;;;;22.51;52.00;101897.66;5008310;28;3502;-60
2022/10/20 08:35:04;;;;;;;;;;;;;;;22.45;51.89;101900.22;5007754;28;3013;-61
2022/10/20 08:37:30;;;;;;;;;;;;;;;22.48;52.25;101892.44;5012070;28;3015;-60
2022/10/20 08:39:57;;;;;;;;;;;;;;;22.52;52.40;101886.88;5013927;28;2947;-61
2022/10/20 08:42:23;;;;;;;;;;;;;;;22.61;51.55;101882.25;5011222;28;3076;-60
2022/10/20 08:44:49;;;;;;;;;;;;;;;22.66;51.45;101875.34;5009704;28;3072;-60
2022/10/20 08:47:23;;;;;;;;;;;;;;;22.51;52.13;101874.56;5017667;28;3395;-61
2022/10/20 08:49:54;;;;;;;;;;;;;;;22.56;51.77;101872.63;5012240;28;2951;-62
2022/10/20 08:52:21;;;;;;;;;;;;;;;22.55;51.75;101869.00;5012569;28;3086;-61
2022/10/20 08:54:47;;;;;;;;;;;;;;;22.57;51.86;101883.56;5012522;28;1614;-60
2022/10/20 08:57:17;;;;;;;;;;;;;;;22.59;52.11;101883.66;5004472;28;4422;-60
2022/10/20 08:59:44;;;;;;;;;;;;;;;22.61;51.95;101876.50;5020587;28;3381;-58
2022/10/20 09:02:14;;;;;;;;;;;;;;;22.60;51.84;101872.88;5021183;28;2929;-61
2022/10/20 09:04:46;;;;;;;;;;;;;;;22.62;51.87;101872.97;5012032;28;2946;-59
2022/10/20 09:07:19;;;;;;;;;;;;;;;22.57;52.07;101872.00;5031826;28;3017;-58
2022/10/20 09:09:45;;;;;;;;;;;;;;;22.56;52.24;101863.97;5015863;28;1806;-58
2022/10/20 09:12:13;;;;;;;;;;;;;;;22.62;52.46;101863.56;5028103;28;3059;-59
2022/10/20 09:14:40;;;;;;;;;;;;;;;22.69;51.67;101853.84;5013485;28;3123;-58
2022/10/20 09:17:11;;;;;;;;;;;;;;;22.64;52.13;101855.75;5032933;28;3074;-60
2022/10/20 09:19:37;;;;;;;;;;;;;;;22.56;52.38;101850.31;5014804;28;2662;-61
2022/10/20 09:22:04;;;;;;;;;;;;;;;22.56;52.43;101847.44;5020815;28;3007;-60
2022/10/20 09:24:30;;;;;;;;;;;;;;;22.65;51.98;101837.03;5019000;28;3018;-60
2022/10/20 09:26:57;;;;;;;;;;;;;;;22.70;52.70;101827.22;5019770;28;3107;-60
2022/10/20 09:29:35;;;;;;;;;;;;;;;22.68;52.34;101814.81;5024814;28;3242;-61
2022/10/20 09:32:01;;;;;;;;;;;;;;;22.66;52.32;101832.78;5021107;28;2759;-58
2022/10/20 09:34:48;;;;;;;;;;;;;;;22.59;52.41;101823.03;5018136;28;2823;-59
2022/10/20 09:37:15;;;;;;;;;;;;;;;22.59;52.31;101820.16;5017667;28;2571;-60
2022/10/20 09:40:02;;;;;;;;;;;;;;;22.65;52.46;101821.84;5020573;28;1818;-60
2022/10/20 09:42:29;;;;;;;;;;;;;;;22.65;52.22;101819.72;5018989;28;2982;-60
2022/10/20 09:44:56;;;;;;;;;;;;;;;22.68;52.35;101806.16;5018158;28;3081;-59
2022/10/20 09:47:22;;;;;;;;;;;;;;;22.64;52.49;101800.16;5019998;28;2662;-58
2022/10/20 09:49:53;;;;;;;;;;;;;;;22.62;52.77;101802.94;5019263;28;2805;-57
2022/10/20 09:52:29;;;;;;;;;;;;;;;22.58;52.51;101798.44;5019161;28;2979;-60
2022/10/20 09:54:59;;;;;;;;;;;;;;;22.91;52.11;101793.59;5014772;28;3080;-62
2022/10/20 09:57:26;;;;;;;;;;;;;;;22.72;52.15;101789.03;5015604;28;3097;-65
2022/10/20 09:59:52;;;;;;;;;;;;;;;21.63;49.90;101786.13;5014258;28;3235;-63
2022/10/20 10:02:19;;;;;;;;;;;;;;;21.08;46.30;101791.63;5024845;28;3243;-61
2022/10/20 10:04:46;;;;;;;;;;;;;;;21.16;46.18;101792.06;5014568;28;3041;-62
2022/10/20 10:07:21;;;;;;;;;;;;;;;21.51;46.29;101786.19;5011317;28;3045;-63
2022/10/20 10:09:57;;;;;;;;;;;;;;;21.87;48.72;101778.06;5012317;28;4450;-64
2022/10/20 10:12:28;;;;;;;;;;;;;;;22.37;48.91;101778.56;5018920;28;3061;-66
2022/10/20 10:14:55;;;;;;;;;;;;;;;22.47;49.07;101775.47;5013911;28;3056;-65
2022/10/20 10:17:28;;;;;;;;;;;;;;;22.48;49.30;101771.94;5017657;28;3140;-66
2022/10/20 10:19:55;;;;;;;;;;;;;;;22.48;49.51;101765.44;5019224;28;2894;-70
2022/10/20 10:22:21;;;;;;;;;;;;;;;22.40;50.05;101762.84;5013248;28;5128;-64
2022/10/20 10:24:48;;;;;;;;;;;;;;;22.37;50.66;101755.50;5001289;28;4831;-65
2022/10/20 10:27:27;;;;;;;;;;;;;;;22.45;50.25;101732.84;5016386;28;2985;-65
2022/10/20 10:29:54;;;;;;;;;;;;;;;22.26;50.58;101739.03;5019851;28;4812;-63
2022/10/20 10:32:24;;;;;;;;;;;;;;;22.37;51.05;101738.16;5016717;28;2634;-65
2022/10/20 10:35:03;;;;;;;;;;;;;;;22.44;51.12;101737.09;5015057;28;3287;-64
2022/10/20 10:37:29;;;;;;;;;;;;;;;22.39;51.19;101735.41;5017105;28;3145;-64
2022/10/20 10:40:00;;;;;;;;;;;;;;;22.41;51.18;101732.63;5018425;28;1636;-63
2022/10/20 10:42:30;;;;;;;;;;;;;;;22.43;51.24;101741.38;5016536;28;3189;-67
2022/10/20 10:45:02;;;;;;;;;;;;;;;22.00;52.12;101723.94;5023757;28;3177;-66
2022/10/20 10:47:31;;;;;;;;;;;;;;;22.14;52.87;101725.44;5018429;28;3058;-67
2022/10/20 10:50:19;;;;;;;;;;;;;;;22.47;52.05;101712.75;5014853;28;2800;-64
2022/10/20 10:53:00;;;;;;;;;;;;;;;22.52;51.63;101708.66;5015495;28;2832;-63
2022/10/20 10:55:27;;;;;;;;;;;;;;;22.54;51.65;101705.88;5023570;28;3142;-63
2022/10/20 10:58:23;;;;;;;;;;;;;;;22.55;51.78;101706.63;5031341;28;1754;-64
2022/10/20 11:01:04;;;;;;;;;;;;;;;22.57;51.96;101686.53;5010019;28;3191;-64
2022/10/20 11:03:49;;;;;;;;;;;;;;;22.53;52.11;101686.31;5015368;28;2781;-63
2022/10/20 11:06:31;;;;;;;;;;;;;;;22.53;52.38;101681.28;5016928;28;2743;-63
2022/10/20 11:09:15;;;;;;;;;;;;;;;22.57;51.99;101675.72;5035020;28;2896;-63
2022/10/20 11:11:47;;;;;;;;;;;;;;;22.31;52.25;101672.25;5030627;28;3048;-65
2022/10/20 11:14:20;;;;;;;;;;;;;;;22.08;52.67;101672.44;5025318;28;3140;-63
2022/10/20 11:16:46;;;;;;;;;;;;;;;22.01;52.86;101654.06;5024559;28;2872;-63
2022/10/20 11:19:12;;;;;;;;;;;;;;;21.94;53.24;101658.03;5018907;28;3532;-63
2022/10/20 11:21:49;;;;;;;;;;;;;;;21.94;53.46;101652.25;4994194;28;5137;-63
2022/10/20 11:24:16;;;;;;;;;;;;;;;21.92;53.46;101646.38;5038500;28;3680;-63
2022/10/20 11:26:49;;;;;;;;;;;;;;;22.00;53.24;101654.72;5020703;28;5239;-62
2022/10/20 11:29:16;;;;;;;;;;;;;;;22.24;53.08;101644.47;5013001;28;3057;-61
2022/10/20 11:31:53;;;;;;;;;;;;;;;22.31;52.95;101643.41;5012502;28;3017;-59
2022/10/20 11:34:27;;;;;;;;;;;;;;;22.21;53.00;101650.75;5009725;28;2850;-61
2022/10/20 11:37:05;;;;;;;;;;;;;;;22.11;53.34;101640.19;5010838;28;2944;-60
2022/10/20 11:39:46;;;;;;;;;;;;;;;22.23;53.57;101630.69;5010290;28;3014;-58
2022/10/20 11:42:19;;;;;;;;;;;;;;;22.41;53.21;101633.75;5010868;28;2916;-60
2022/10/20 11:44:45;;;;;;;;;;;;;;;22.47;52.80;101631.94;5014997;28;3316;-60
2022/10/20 11:47:12;;;;;;;;;;;;;;;22.42;52.86;101618.66;5012541;28;3009;-60
2022/10/20 11:49:39;;;;;;;;;;;;;;;22.49;52.83;101620.47;5018807;28;2954;-61
2022/10/20 11:52:19;;;;;;;;;;;;;;;22.52;52.52;101619.19;5016572;28;3090;-61
2022/10/20 11:54:59;;;;;;;;;;;;;;;22.52;52.33;101619.19;5032354;28;2988;-62
2022/10/20 11:57:34;;;;;;;;;;;;;;;22.41;52.59;101617.19;5007288;28;2964;-63
2022/10/20 12:00:00;;;;;;;;;;;;;;;22.41;52.99;101622.97;5020691;28;2771;-61
2022/10/20 12:02:42;;;;;;;;;;;;;;;22.43;53.10;101614.41;5013793;28;2989;-60
2022/10/20 12:05:08;;;;;;;;;;;;;;;22.45;52.69;101613.72;5037621;28;3953;-61
2022/10/20 12:07:53;;;;;;;;;;;;;;;22.41;52.80;101617.19;5021676;28;2963;-60
2022/10/20 12:10:47;;;;;;;;;;;;;;;22.39;53.33;101614.19;5020909;28;3025;-59
2022/10/20 12:13:17;;;;;;;;;;;;;;;22.29;52.83;101611.56;5015859;28;3489;-56
2022/10/20 12:15:47;;;;;;;;;;;;;;;22.37;52.76;101593.88;5017427;28;3616;-57
2022/10/20 12:18:29;;;;;;;;;;;;;;;22.42;52.78;101589.81;5005525;28;3078;-60
2022/10/20 12:20:59;;;;;;;;;;;;;;;22.37;52.89;101585.22;5025771;28;2811;-59
2022/10/20 12:23:56;;;;;;;;;;;;;;;22.33;53.05;101585.03;5014437;28;3016;-58
2022/10/20 12:26:28;;;;;;;;;;;;;;;22.34;53.40;101583.66;5011611;28;3007;-60
2022/10/20 12:28:55;;;;;;;;;;;;;;;22.39;53.10;101579.56;5008581;28;3072;-61
2022/10/20 12:31:21;;;;;;;;;;;;;;;22.41;53.14;101582.56;5007330;28;4256;-60
2022/10/20 12:33:48;;;;;;;;;;;;;;;22.35;53.00;101593.78;5012649;28;4249;-60
2022/10/20 12:36:17;;;;;;;;;;;;;;;22.21;53.47;101581.50;5008616;28;3409;-59
2022/10/20 12:38:44;;;;;;;;;;;;;;;22.20;53.01;101582.91;5018610;28;3230;-59
2022/10/20 12:41:11;;;;;;;;;;;;;;;22.20;53.18;101583.66;5022498;28;2961;-59
2022/10/20 12:43:45;;;;;;;;;;;;;;;22.17;53.75;101571.28;5019795;28;2970;-56
2022/10/20 12:46:14;;;;;;;;;;;;;;;22.51;53.75;101562.84;5012492;28;3144;-58
2022/10/20 12:48:42;;;;;;;;;;;;;;;22.45;49.55;101561.78;5019347;28;4594;-59
2022/10/20 12:51:16;;;;;;;;;;;;;;;22.58;50.17;101561.72;5012491;28;2974;-59
2022/10/20 12:53:42;;;;;;;;;;;;;;;22.91;50.25;101548.84;5017462;28;2969;-60
2022/10/20 12:56:09;;;;;;;;;;;;;;;22.95;51.11;101537.50;5028653;28;2153;-60